Petitcodiac, Canada
Current Conditions -  °F | °C
As of 11:00 PM on Friday 24 Oct 2014 (Local Time) from CYQM Reporting Station
Drizzle Drizzle  
Wind Chill: 42°   Ceiling: 300
Heat Index: 48°   Visibility: 2mi
Dew Point: 46°   Wind: 16mph
Humidity: 93%   Direction: 350°N
Pressure: 29.49"   Gusts: 24mph
Location:  45.93°N, 65.17°W
Report Text: CYQM 250200Z 35014G21KT 2SM -DZ BR OVC003 09/08 A2949 RMK SF8 SLP988
Loading
Personal Weather Stations






























Interactive Weather Map
Tropical Storm Tracking
New forecast layout! Learn more

10-Day Weather Forecast

Advertisements
Track Severe Weather on mobile